Terminal Aerodrome Forecast
Issued by NWS

Home | Current Version | Previous Version | Text Only | Print | Product List | Glossary On
Versions: 1 2 3 4 5 6 7 8 9 10 11 12 13 14 15 16 17 18 19 20 21 22 23 24 25 26 27 28 29 30 31 32 33 34 35 36 37
000
FTUS43 KDLH 130201 AAA
TAFHYR
TAF AMD
KHYR 130201Z 1302/1324 16006KT 6SM -SN SCT020 OVC030
      TEMPO 1303/1304 3SM -SN
     FM130400 15004KT 4SM -SN SCT015 OVC024
     FM130500 15004KT 3SM -SN OVC018
     FM130800 15006KT 6SM -SN OVC010
     FM131100 14008KT 2SM -SN OVC009
     FM131800 03005KT 6SM -SN OVC010
     FM132300 01005KT P6SM BKN030=

USA.gov is the U.S. government's official web portal to all federal, state and local government web resources and services.